Time;durP1;ratioP1;P1;durP2;ratioP2;P2;SDS_P1;SDS_P2;PMS_P1;PMS_P2;Temp;Humidity;BMP_temperature;BMP_pressure;BME280_temperature;BME280_humidity;BME280_pressure;Samples;Min_cycle;Max_cycle;Signal;HPM_P1;HPM_P2
2024/01/30 00:00:54;;;;;;;9.50;4.82;;;;;;;0.04;69.89;102277.50;5077140;28;20035;-76
2024/01/30 00:03:19;;;;;;;28.65;15.60;;;;;;;0.20;69.31;102287.84;5088557;28;20024;-75
2024/01/30 00:05:45;;;;;;;10.40;5.20;;;;;;;0.34;69.32;102303.56;5088676;28;20161;-76
2024/01/30 00:08:10;;;;;;;9.15;4.78;;;;;;;-0.05;69.43;102249.22;5087934;28;20039;-77
2024/01/30 00:10:36;;;;;;;17.48;6.28;;;;;;;0.23;70.49;102297.34;5084847;28;20032;-76
2024/01/30 00:13:02;;;;;;;18.90;7.72;;;;;;;0.31;70.73;102316.91;5050431;28;20025;-77
2024/01/30 00:15:27;;;;;;;18.25;6.53;;;;;;;0.20;70.11;102303.59;5049938;28;20033;-75
2024/01/30 00:17:53;;;;;;;17.42;6.55;;;;;;;0.27;70.00;102320.66;5050074;28;20036;-76
2024/01/30 00:20:19;;;;;;;15.07;6.90;;;;;;;-0.17;71.44;102274.41;5069634;28;20119;-76
2024/01/30 00:22:44;;;;;;;17.35;6.65;;;;;;;-0.06;71.73;102298.22;5069203;28;20101;-76
2024/01/30 00:25:10;;;;;;;10.80;5.40;;;;;;;0.09;71.00;102308.69;5067489;28;20952;-76
2024/01/30 00:27:35;;;;;;;17.80;7.80;;;;;;;0.12;71.48;102300.63;5049603;28;20120;-76
2024/01/30 00:30:01;;;;;;;14.75;6.40;;;;;;;0.21;70.65;102310.56;5067718;28;20044;-77
2024/01/30 00:32:26;;;;;;;12.85;6.55;;;;;;;0.06;70.34;102303.63;5086132;28;20036;-77
2024/01/30 00:34:52;;;;;;;31.20;26.17;;;;;;;0.04;69.89;102297.63;5070291;28;20542;-76
2024/01/30 00:37:17;;;;;;;37.20;33.25;;;;;;;-0.29;71.10;102293.53;5086019;28;20024;-76
2024/01/30 00:39:43;;;;;;;16.77;10.77;;;;;;;-0.10;71.77;102301.09;5068129;28;20028;-76
2024/01/30 00:42:08;;;;;;;18.48;11.52;;;;;;;-0.01;70.67;102306.63;5083983;28;20024;-76
2024/01/30 00:44:38;;;;;;;29.15;17.95;;;;;;;-0.22;71.65;102302.72;5069472;28;20032;-75
2024/01/30 00:47:04;;;;;;;15.82;9.88;;;;;;;0.12;70.99;102317.22;5088477;28;20024;-75
2024/01/30 00:49:29;;;;;;;64.22;43.22;;;;;;;-0.22;72.67;102302.72;5050861;28;20039;-76
2024/01/30 00:51:55;;;;;;;27.83;19.17;;;;;;;-0.16;72.07;102304.09;5079189;28;20024;-77
2024/01/30 00:54:20;;;;;;;12.18;7.38;;;;;;;-0.13;72.24;102273.28;5088251;28;20020;-76
2024/01/30 00:56:45;;;;;;;99.35;71.63;;;;;;;0.12;70.74;102326.84;5088163;28;20032;-75
2024/01/30 00:59:11;;;;;;;19.48;11.85;;;;;;;0.02;71.72;102325.75;5087962;28;20626;-76
2024/01/30 01:01:37;;;;;;;27.83;20.88;;;;;;;-0.20;72.37;102324.44;5087300;28;20078;-77
2024/01/30 01:04:02;;;;;;;23.88;14.10;;;;;;;-0.21;71.94;102325.38;5087514;28;20024;-77
2024/01/30 01:06:28;;;;;;;16.23;8.23;;;;;;;-0.11;71.28;102295.00;5070197;28;20114;-76
2024/01/30 01:08:53;;;;;;;32.38;20.85;;;;;;;-0.18;72.23;102319.94;5075602;28;20400;-75
2024/01/30 01:11:18;;;;;;;25.25;13.05;;;;;;;-0.30;72.85;102315.44;5071893;28;20035;-76
2024/01/30 01:13:44;;;;;;;23.83;13.27;;;;;;;-0.22;72.67;102297.47;5069821;28;20747;-76
2024/01/30 01:16:09;;;;;;;22.52;11.77;;;;;;;0.01;70.66;102301.28;5088251;28;20056;-76
2024/01/30 01:18:35;;;;;;;16.23;7.65;;;;;;;0.05;70.60;102302.78;5079302;28;20035;-77
2024/01/30 01:21:00;;;;;;;18.92;10.55;;;;;;;-0.23;72.19;102306.25;5067988;28;20498;-76
2024/01/30 01:23:26;;;;;;;22.83;11.30;;;;;;;-0.41;72.57;102302.97;5051316;28;20041;-75
2024/01/30 01:25:51;;;;;;;18.33;8.70;;;;;;;-0.40;73.79;102309.91;5053678;28;20032;-76
2024/01/30 01:28:17;;;;;;;14.25;7.03;;;;;;;-0.45;73.32;102291.84;5070996;28;20094;-76
2024/01/30 01:30:42;;;;;;;16.75;8.40;;;;;;;-0.50;74.14;102299.13;5071404;28;20028;-76
2024/01/30 01:33:09;;;;;;;20.40;11.13;;;;;;;-0.27;73.13;102294.28;5074088;28;20024;-77
2024/01/30 01:35:34;;;;;;;12.88;6.22;;;;;;;-0.46;73.50;102313.72;5071454;28;20404;-77
2024/01/30 01:38:00;;;;;;;17.60;7.05;;;;;;;-0.32;72.49;102301.59;5053505;28;20512;-77
2024/01/30 01:40:27;;;;;;;15.63;8.68;;;;;;;-0.72;74.25;102278.59;5071058;28;20067;-76
2024/01/30 01:42:54;;;;;;;18.15;7.90;;;;;;;-0.58;73.66;102296.13;5084803;28;20032;-76
2024/01/30 01:45:20;;;;;;;13.73;7.03;;;;;;;-0.56;73.81;102294.25;5090686;28;20448;-76
2024/01/30 01:47:50;;;;;;;14.20;7.60;;;;;;;-0.49;73.76;102292.97;5092010;28;20040;-76
2024/01/30 01:50:19;;;;;;;16.55;8.00;;;;;;;-0.30;72.41;102300.56;5071516;28;20105;-75
2024/01/30 01:52:47;;;;;;;12.90;6.95;;;;;;;-0.44;73.28;102261.22;5073802;28;20017;-76
2024/01/30 01:55:14;;;;;;;14.55;8.55;;;;;;;-0.73;73.67;102276.06;5053360;28;20039;-76
2024/01/30 01:57:41;;;;;;;12.98;6.38;;;;;;;-0.59;73.98;102294.44;5052990;28;20075;-76
2024/01/30 02:00:10;;;;;;;32.67;21.17;;;;;;;-0.63;74.89;102303.41;5070619;28;20090;-76
2024/01/30 02:02:36;;;;;;;13.00;6.88;;;;;;;-0.29;73.91;102301.38;5055350;28;20032;-77
2024/01/30 02:05:02;;;;;;;11.70;6.57;;;;;;;-0.12;73.76;102316.09;5070886;28;20032;-76
2024/01/30 02:07:28;;;;;;;12.52;6.68;;;;;;;-0.39;73.68;102301.09;5052759;28;20029;-76
2024/01/30 02:09:55;;;;;;;12.38;6.78;;;;;;;-0.29;72.79;102306.63;5084848;28;20036;-76
2024/01/30 02:12:20;;;;;;;14.10;7.20;;;;;;;-0.41;72.51;102282.84;5071329;28;20485;-75
2024/01/30 02:14:46;;;;;;;13.10;7.22;;;;;;;-0.54;72.44;102297.63;5072542;28;20043;-77
2024/01/30 02:17:13;;;;;;;13.38;7.25;;;;;;;-0.94;74.81;102299.97;5071878;28;20132;-76
2024/01/30 02:19:38;;;;;;;12.52;6.45;;;;;;;-1.40;75.75;102297.34;5079108;28;20458;-76
2024/01/30 02:22:04;;;;;;;14.50;6.70;;;;;;;-2.31;76.32;102304.88;5073506;28;20028;-75
2024/01/30 02:24:30;;;;;;;13.98;6.18;;;;;;;-2.40;77.45;102299.28;5053253;28;20033;-77
2024/01/30 02:26:55;;;;;;;13.30;6.05;;;;;;;-2.24;79.93;102311.47;5052882;28;20051;-78
2024/01/30 02:29:21;;;;;;;11.77;6.60;;;;;;;-1.83;77.93;102295.31;5070801;28;20024;-77
2024/01/30 02:31:46;;;;;;;12.73;6.18;;;;;;;-1.47;77.31;102306.47;5073660;28;20101;-76
2024/01/30 02:34:12;;;;;;;14.27;6.90;;;;;;;-1.33;77.97;102272.50;5073658;28;20025;-78
2024/01/30 02:36:37;;;;;;;13.75;6.45;;;;;;;-1.46;77.35;102245.34;5073536;28;20115;-77
2024/01/30 02:39:03;;;;;;;14.40;6.72;;;;;;;-1.86;79.77;102281.56;5062734;28;20456;-77
2024/01/30 02:41:29;;;;;;;16.17;7.28;;;;;;;-2.12;81.23;102278.59;5080587;28;20052;-76
2024/01/30 02:43:54;;;;;;;14.02;6.30;;;;;;;-2.14;82.47;102282.22;5065131;28;20025;-77
2024/01/30 02:46:20;;;;;;;13.27;6.10;;;;;;;-2.17;81.43;102279.75;5062266;28;20032;-77
2024/01/30 02:48:45;;;;;;;14.50;6.45;;;;;;;-2.08;81.85;102285.34;5079703;28;20067;-78
2024/01/30 02:51:11;;;;;;;13.10;6.18;;;;;;;-1.96;81.32;102288.22;5100868;28;20040;-77
2024/01/30 02:53:36;;;;;;;14.13;7.05;;;;;;;-1.61;80.49;102288.94;5086976;28;20181;-77
2024/01/30 02:56:03;;;;;;;14.95;6.47;;;;;;;-1.68;80.48;102306.72;5081187;28;20032;-78
2024/01/30 02:58:28;;;;;;;11.60;6.45;;;;;;;-1.96;81.20;102283.00;5080457;28;20119;-78
2024/01/30 03:00:53;;;;;;;13.25;6.50;;;;;;;-1.27;78.85;102293.13;5095333;28;20052;-77
2024/01/30 03:03:19;;;;;;;14.43;7.30;;;;;;;-1.22;79.18;102293.69;5096882;28;20615;-78
2024/01/30 03:05:44;;;;;;;16.52;7.25;;;;;;;-1.35;78.83;102263.91;5098092;28;20085;-77
2024/01/30 03:08:10;;;;;;;14.02;6.97;;;;;;;-1.02;78.04;102282.09;5097609;28;20154;-78
2024/01/30 03:10:35;;;;;;;13.20;6.22;;;;;;;-0.99;77.53;102262.72;5082287;28;20037;-78
2024/01/30 03:13:01;;;;;;;15.98;6.57;;;;;;;-0.85;76.98;102273.22;5079753;28;20032;-77
2024/01/30 03:15:26;;;;;;;14.23;7.15;;;;;;;-0.91;77.81;102270.97;5074143;28;20028;-77
2024/01/30 03:17:52;;;;;;;12.65;6.07;;;;;;;-1.03;79.30;102261.22;5091501;28;20511;-78
2024/01/30 03:20:18;;;;;;;12.80;6.43;;;;;;;-0.95;78.98;102272.09;5090955;28;20794;-77
2024/01/30 03:22:43;;;;;;;13.52;7.07;;;;;;;-0.86;78.56;102266.31;5072694;28;20024;-77
2024/01/30 03:25:09;;;;;;;14.52;7.78;;;;;;;-0.54;78.81;102292.38;5071908;28;20039;-78
2024/01/30 03:27:34;;;;;;;13.88;7.15;;;;;;;-0.49;78.20;102279.00;5089747;28;20083;-77
2024/01/30 03:29:59;;;;;;;17.27;7.18;;;;;;;-0.45;77.72;102281.34;5082908;28;20031;-77
2024/01/30 03:32:25;;;;;;;13.75;6.57;;;;;;;-0.51;78.24;102284.34;5069418;28;20028;-77
2024/01/30 03:34:50;;;;;;;11.70;6.25;;;;;;;-0.62;78.21;102264.00;5069821;28;20111;-77
2024/01/30 03:37:16;;;;;;;12.45;6.00;;;;;;;-0.53;79.02;102280.97;5071207;28;20024;-77
2024/01/30 03:39:41;;;;;;;13.23;6.72;;;;;;;-0.56;78.42;102278.53;5068088;28;20101;-77
2024/01/30 03:42:06;;;;;;;13.52;6.68;;;;;;;-0.40;78.33;102283.69;5068975;28;20502;-77
2024/01/30 03:44:32;;;;;;;14.13;6.82;;;;;;;-0.43;78.46;102269.00;5066291;28;20035;-77
2024/01/30 03:46:57;;;;;;;14.98;6.88;;;;;;;-0.47;78.40;102262.25;5088348;28;20024;-77
2024/01/30 03:49:23;;;;;;;13.85;6.07;;;;;;;-0.62;78.57;102245.66;5089022;28;20089;-79
2024/01/30 03:51:48;;;;;;;11.90;5.75;;;;;;;-0.46;77.43;102261.31;5069296;28;20043;-77
2024/01/30 03:54:14;;;;;;;10.55;5.30;;;;;;;-0.39;77.94;102271.41;5070864;28;20035;-76
2024/01/30 03:56:39;;;;;;;10.35;5.97;;;;;;;-0.43;77.95;102279.47;5068844;28;20508;-76
2024/01/30 03:59:05;;;;;;;10.35;5.45;;;;;;;-0.41;77.80;102269.75;5068571;28;20566;-77
2024/01/30 04:01:30;;;;;;;11.52;5.70;;;;;;;-0.37;78.05;102261.69;5068677;28;20024;-77
2024/01/30 04:03:55;;;;;;;10.93;5.65;;;;;;;-0.17;77.54;102278.81;5071074;28;20036;-78
2024/01/30 04:06:21;;;;;;;12.55;6.38;;;;;;;-0.20;76.79;102264.13;5050218;28;20020;-77
2024/01/30 04:08:46;;;;;;;13.25;6.15;;;;;;;-0.15;76.38;102262.03;5068262;28;20135;-77
2024/01/30 04:11:12;;;;;;;10.00;5.53;;;;;;;-0.16;77.39;102270.88;5068193;28;20036;-78
2024/01/30 04:13:37;;;;;;;12.75;6.60;;;;;;;-0.04;78.43;102270.09;5072422;28;20036;-78
2024/01/30 04:16:03;;;;;;;10.45;5.78;;;;;;;0.05;77.86;102283.59;5069785;28;20051;-77
2024/01/30 04:18:29;;;;;;;11.80;5.53;;;;;;;0.00;77.99;102278.63;5088413;28;20421;-78
2024/01/30 04:20:54;;;;;;;11.50;6.00;;;;;;;0.03;76.83;102253.97;5061277;28;20036;-77
2024/01/30 04:23:20;;;;;;;12.18;6.05;;;;;;;0.06;77.15;102274.75;5051528;28;20405;-77
2024/01/30 04:25:45;;;;;;;11.63;5.32;;;;;;;0.05;77.50;102267.84;5069185;28;20050;-77
2024/01/30 04:28:12;;;;;;;12.30;5.95;;;;;;;0.21;77.03;102284.31;5069685;28;20032;-78
2024/01/30 04:30:37;;;;;;;14.65;6.38;;;;;;;0.16;77.67;102287.22;5088054;28;20028;-78
2024/01/30 04:33:03;;;;;;;13.48;6.25;;;;;;;-0.04;78.59;102275.34;5070008;28;20035;-77
2024/01/30 04:35:29;;;;;;;16.10;7.18;;;;;;;0.04;78.79;102284.50;5085839;28;20416;-78
2024/01/30 04:37:54;;;;;;;14.13;7.68;;;;;;;0.02;78.64;102274.13;5069834;28;20027;-77
2024/01/30 04:40:21;;;;;;;14.68;7.13;;;;;;;0.12;78.94;102300.63;5088004;28;20400;-77
2024/01/30 04:42:46;;;;;;;27.40;10.95;;;;;;;0.10;78.28;102286.75;5087737;28;20488;-77
2024/01/30 04:45:12;;;;;;;23.92;10.77;;;;;;;0.23;77.25;102300.81;5086673;28;20024;-77
2024/01/30 04:47:38;;;;;;;36.78;14.82;;;;;;;0.24;77.39;102288.53;5088008;28;20024;-77
2024/01/30 04:50:06;;;;;;;55.72;18.88;;;;;;;0.18;78.29;102294.97;5069354;28;20024;-77
2024/01/30 04:52:31;;;;;;;24.27;11.38;;;;;;;0.27;77.66;102306.72;5087035;28;20051;-77
2024/01/30 04:54:57;;;;;;;51.55;17.52;;;;;;;0.25;77.26;102296.31;5086544;28;20392;-78
2024/01/30 04:57:22;;;;;;;35.92;12.98;;;;;;;0.23;77.26;102292.94;5069315;28;20032;-78
2024/01/30 04:59:47;;;;;;;36.45;14.00;;;;;;;0.16;78.34;102281.13;5087397;28;20035;-78
2024/01/30 05:02:13;;;;;;;38.60;17.30;;;;;;;0.14;77.68;102293.50;5087304;28;20128;-78
2024/01/30 05:04:40;;;;;;;27.75;15.15;;;;;;;0.21;78.44;102307.94;5059385;28;20473;-78
2024/01/30 05:07:05;;;;;;;29.63;14.57;;;;;;;-0.16;79.19;102278.75;5049659;28;20031;-78
2024/01/30 05:09:31;;;;;;;39.60;20.95;;;;;;;-0.01;80.33;102296.13;5049443;28;20025;-77
2024/01/30 05:11:56;;;;;;;20.00;8.98;;;;;;;-0.09;79.17;102274.78;5066997;28;20025;-77
2024/01/30 05:14:22;;;;;;;21.70;12.70;;;;;;;0.07;80.45;102313.19;5070012;28;20028;-77
2024/01/30 05:16:47;;;;;;;16.55;8.13;;;;;;;0.21;79.57;102315.81;5075530;28;20048;-77
2024/01/30 05:19:15;;;;;;;14.18;7.75;;;;;;;0.25;79.30;102313.84;5057393;28;20012;-77
2024/01/30 05:21:41;;;;;;;;;;;;;;;0.25;80.06;102312.03;5078460;28;20024;-77
2024/01/30 05:24:06;;;;;;;13.95;7.47;;;;;;;0.27;78.38;102314.59;5077694;28;19927;-78
2024/01/30 05:26:32;;;;;;;14.98;7.30;;;;;;;0.25;79.24;102314.66;5062152;28;20020;-77
2024/01/30 05:28:57;;;;;;;13.73;6.47;;;;;;;0.25;79.64;102316.47;5073358;28;20036;-78
2024/01/30 05:31:23;;;;;;;13.45;7.55;;;;;;;0.23;79.00;102302.59;5077760;28;20043;-79
2024/01/30 05:33:48;;;;;;;15.05;8.25;;;;;;;0.11;79.97;102283.19;5077928;28;20028;-77
2024/01/30 05:36:14;;;;;;;17.08;8.75;;;;;;;0.49;78.95;102319.28;5078302;28;20024;-78
2024/01/30 05:38:39;;;;;;;17.50;8.95;;;;;;;0.35;78.82;102302.66;5062527;28;20138;-77
2024/01/30 05:41:04;;;;;;;18.77;10.65;;;;;;;0.33;79.67;102308.94;5058220;28;20111;-76
2024/01/30 05:43:30;;;;;;;17.25;9.32;;;;;;;0.15;80.14;102295.19;5078835;28;20028;-77
2024/01/30 05:45:55;;;;;;;18.88;8.70;;;;;;;0.29;79.32;102300.41;5080095;28;20104;-76
2024/01/30 05:48:21;;;;;;;15.00;9.23;;;;;;;0.42;79.31;102325.88;5075504;28;20021;-77
2024/01/30 05:50:46;;;;;;;16.77;9.98;;;;;;;0.52;78.19;102319.13;5087111;28;20096;-77
2024/01/30 05:53:11;;;;;;;16.02;9.07;;;;;;;0.35;78.37;102330.69;5087010;28;20092;-77
2024/01/30 05:55:37;;;;;;;19.27;9.13;;;;;;;0.26;80.15;102320.75;5059174;28;20025;-78
2024/01/30 05:58:03;;;;;;;20.35;10.02;;;;;;;0.21;78.73;102284.31;5066696;28;20036;-78
2024/01/30 06:00:29;;;;;;;20.80;11.00;;;;;;;0.36;79.94;102334.97;5066914;28;20046;-77
2024/01/30 06:02:54;;;;;;;17.88;10.02;;;;;;;0.32;79.88;102339.56;5067030;28;20045;-77
2024/01/30 06:05:20;;;;;;;49.80;20.88;;;;;;;0.32;78.99;102317.75;5069577;28;20345;-77
2024/01/30 06:07:45;;;;;;;27.45;13.98;;;;;;;0.43;77.47;102314.44;5049116;28;20031;-76
2024/01/30 06:10:11;;;;;;;38.45;19.55;;;;;;;0.50;78.57;102336.75;5050893;28;20021;-77
2024/01/30 06:12:36;;;;;;;35.08;17.92;;;;;;;0.44;80.05;102337.97;5069988;28;20036;-77
2024/01/30 06:15:02;;;;;;;53.03;28.38;;;;;;;0.27;80.38;102297.03;5073204;28;20016;-78
2024/01/30 06:17:28;;;;;;;51.58;25.45;;;;;;;0.62;78.39;102314.97;5090370;28;20550;-76
2024/01/30 06:19:53;;;;;;;33.33;18.60;;;;;;;0.49;79.43;102314.03;5090578;28;20028;-78
2024/01/30 06:22:19;;;;;;;22.20;10.60;;;;;;;0.31;80.40;102305.56;5082724;28;20028;-77
2024/01/30 06:24:45;;;;;;;14.90;8.45;;;;;;;0.34;80.50;102311.44;5053960;28;20482;-78
2024/01/30 06:27:11;;;;;;;16.85;8.43;;;;;;;0.40;79.39;102320.72;5071708;28;20103;-79
2024/01/30 06:29:36;;;;;;;17.60;8.82;;;;;;;0.36;80.22;102320.06;5069843;28;20048;-77
2024/01/30 06:32:02;;;;;;;15.45;8.48;;;;;;;0.15;80.84;102292.56;5069878;28;20036;-77
2024/01/30 06:34:27;;;;;;;17.60;9.27;;;;;;;0.32;81.15;102321.22;5051868;28;21022;-77
2024/01/30 06:36:53;;;;;;;16.30;8.63;;;;;;;0.40;81.42;102321.56;5072349;28;20461;-77
2024/01/30 06:39:18;;;;;;;22.80;12.02;;;;;;;0.48;80.56;102318.47;5069957;28;20021;-77
2024/01/30 06:41:46;;;;;;;17.75;9.30;;;;;;;0.40;81.56;102310.22;5070039;28;20443;-77
2024/01/30 06:44:11;;;;;;;19.63;10.00;;;;;;;0.52;80.95;102334.88;5051791;28;20025;-76
2024/01/30 06:46:38;;;;;;;15.80;8.18;;;;;;;0.48;80.84;102325.50;5083091;28;20035;-78
2024/01/30 06:49:03;;;;;;;19.83;8.70;;;;;;;0.48;81.51;102320.25;5089464;28;20072;-77
2024/01/30 06:51:28;;;;;;;18.25;9.18;;;;;;;0.66;80.50;102321.69;5089835;28;20111;-77
2024/01/30 06:53:54;;;;;;;17.73;8.75;;;;;;;0.28;81.74;102296.09;5071086;28;20471;-79
2024/01/30 06:56:20;;;;;;;18.38;9.38;;;;;;;0.40;81.52;102324.19;5081363;28;20032;-77
2024/01/30 06:58:50;;;;;;;18.33;11.02;;;;;;;0.49;82.15;102335.03;5069678;28;20028;-78
2024/01/30 07:01:16;;;;;;;19.15;9.32;;;;;;;0.44;81.60;102331.88;5069581;28;20031;-78
2024/01/30 07:03:42;;;;;;;18.83;9.15;;;;;;;0.68;81.45;102347.88;5069298;28;20028;-77
2024/01/30 07:06:08;;;;;;;26.73;12.88;;;;;;;0.80;80.18;102353.16;5053409;28;20025;-76
2024/01/30 07:08:33;;;;;;;23.85;12.77;;;;;;;0.87;79.17;102335.22;5069274;28;20024;-77
2024/01/30 07:10:59;;;;;;;19.17;10.73;;;;;;;0.55;80.78;102316.28;5069264;28;20028;-78
2024/01/30 07:13:24;;;;;;;25.50;12.02;;;;;;;0.57;80.70;102327.53;5069280;28;20032;-78
2024/01/30 07:15:50;;;;;;;34.92;13.95;;;;;;;0.52;80.65;102325.19;5072460;28;20044;-77
2024/01/30 07:18:15;;;;;;;23.58;12.60;;;;;;;0.67;81.37;102339.13;5089768;28;20492;-77
2024/01/30 07:20:46;;;;;;;22.20;11.52;;;;;;;0.46;81.17;102322.13;5078807;28;20382;-78
2024/01/30 07:23:17;;;;;;;18.10;9.70;;;;;;;0.55;81.34;102347.78;5083865;28;20043;-78
2024/01/30 07:25:48;;;;;;;36.17;16.80;;;;;;;0.67;80.72;102348.78;5080615;28;20112;-77
2024/01/30 07:28:16;;;;;;;41.92;21.40;;;;;;;0.65;80.20;102319.16;5061271;28;20063;-77
2024/01/30 07:30:42;;;;;;;23.20;12.07;;;;;;;0.79;81.35;102355.88;5083666;28;20028;-77
2024/01/30 07:33:08;;;;;;;18.55;8.80;;;;;;;0.82;78.10;102352.22;5082266;28;20028;-78
2024/01/30 07:35:34;;;;;;;18.25;8.27;;;;;;;0.87;78.17;102339.63;5069970;28;20078;-78
2024/01/30 07:37:59;;;;;;;13.80;6.35;;;;;;;0.98;77.47;102353.78;5053182;28;20110;-77
2024/01/30 07:40:25;;;;;;;12.68;5.90;;;;;;;0.89;78.24;102345.63;5068675;28;20374;-77
2024/01/30 07:42:50;;;;;;;12.85;6.03;;;;;;;0.87;77.50;102339.63;5068394;28;20032;-77
2024/01/30 07:45:16;;;;;;;12.20;6.32;;;;;;;0.71;78.39;102332.72;5050601;28;20161;-76
2024/01/30 07:47:42;;;;;;;14.50;6.30;;;;;;;0.78;78.53;102335.84;5070789;28;20028;-77
2024/01/30 07:50:08;;;;;;;12.35;6.93;;;;;;;0.89;78.01;102346.47;5050710;28;20032;-77
2024/01/30 07:52:33;;;;;;;14.13;6.45;;;;;;;0.66;77.71;102299.84;5050203;28;20036;-77
2024/01/30 07:55:36;;;;;;;12.70;6.20;;;;;;;0.87;77.59;102345.72;5088048;28;20027;-77
2024/01/30 07:58:03;;;;;;;12.75;6.38;;;;;;;0.87;77.65;102342.25;5061904;28;20060;-76
2024/01/30 08:00:31;;;;;;;13.20;6.53;;;;;;;0.76;78.11;102314.06;5068156;28;20604;-78
2024/01/30 08:02:57;;;;;;;15.00;6.80;;;;;;;0.86;77.67;102319.53;5068976;28;20031;-77
2024/01/30 08:05:23;;;;;;;15.15;6.63;;;;;;;0.84;78.41;102308.31;5050675;28;20032;-82
2024/01/30 08:07:51;;;;;;;13.07;6.28;;;;;;;1.02;77.21;102322.03;5062880;28;20408;-76
2024/01/30 08:10:18;;;;;;;;;;;;;;;1.32;76.14;102335.75;5088860;28;20087;-76
2024/01/30 08:12:44;;;;;;;12.00;6.07;;;;;;;1.21;75.58;102322.50;5063755;28;19919;-76
2024/01/30 08:15:10;;;;;;;66.93;23.95;;;;;;;1.34;74.52;102309.38;5067321;28;20055;-76
2024/01/30 08:17:35;;;;;;;39.10;18.20;;;;;;;1.40;74.04;102330.00;5052334;28;20053;-77
2024/01/30 08:20:01;;;;;;;40.92;19.60;;;;;;;1.39;74.29;102330.94;5067826;28;20040;-77
2024/01/30 08:22:26;;;;;;;37.15;18.95;;;;;;;1.27;73.90;102311.56;5049703;28;20036;-77
2024/01/30 08:24:51;;;;;;;27.52;11.55;;;;;;;1.66;73.60;102348.44;5049827;28;20032;-76
2024/01/30 08:27:17;;;;;;;26.77;13.43;;;;;;;1.60;73.05;102341.78;5076178;28;20681;-76
2024/01/30 08:29:42;;;;;;;22.67;10.65;;;;;;;1.54;73.46;102340.41;5070019;28;20024;-77
2024/01/30 08:32:08;;;;;;;23.05;10.25;;;;;;;1.40;73.66;102324.72;5087220;28;20495;-76
2024/01/30 08:34:33;;;;;;;23.13;10.30;;;;;;;1.49;73.50;102337.28;5075346;28;20123;-77
2024/01/30 08:36:59;;;;;;;16.10;8.45;;;;;;;1.50;74.21;102338.94;5071519;28;20032;-78
2024/01/30 08:39:24;;;;;;;13.85;7.45;;;;;;;1.49;74.14;102337.28;5067431;28;20056;-76
2024/01/30 08:41:50;;;;;;;11.95;7.07;;;;;;;1.79;72.48;102365.06;5049512;28;20118;-77
2024/01/30 08:44:17;;;;;;;17.67;9.35;;;;;;;1.74;73.34;102349.59;5067953;28;20044;-78
2024/01/30 08:46:43;;;;;;;14.48;7.10;;;;;;;1.95;71.39;102365.69;5070651;28;20042;-76
2024/01/30 08:49:08;;;;;;;13.15;6.43;;;;;;;2.05;72.00;102372.97;5086543;28;20031;-77
2024/01/30 08:51:34;;;;;;;15.50;8.13;;;;;;;1.95;71.46;102357.78;5087461;28;20032;-77
2024/01/30 08:53:59;;;;;;;15.32;7.28;;;;;;;2.06;71.40;102377.25;5082646;28;20031;-76
2024/01/30 08:56:25;;;;;;;13.82;7.10;;;;;;;1.94;72.18;102342.09;5067034;28;20032;-77
2024/01/30 08:58:51;;;;;;;12.50;6.22;;;;;;;1.98;71.76;102354.97;5070386;28;20025;-76
2024/01/30 09:01:16;;;;;;;12.85;7.20;;;;;;;1.95;72.25;102362.22;5049540;28;20576;-77
2024/01/30 09:03:43;;;;;;;20.15;10.02;;;;;;;2.07;70.28;102365.78;5068083;28;20025;-76
2024/01/30 09:06:11;;;;;;;22.20;12.02;;;;;;;1.95;71.63;102364.84;5067857;28;20928;-77
2024/01/30 09:08:37;;;;;;;;;;;;;;;2.06;72.56;102377.25;5082890;28;20032;-77
2024/01/30 09:11:12;;;;;;;19.75;10.35;;;;;;;2.12;71.11;102361.03;5069025;28;20426;-76
2024/01/30 09:13:38;;;;;;;13.38;7.50;;;;;;;2.42;69.99;102374.69;5086694;28;20111;-78
2024/01/30 09:16:04;;;;;;;29.60;11.65;;;;;;;2.34;70.62;102371.75;5087130;28;20139;-76
2024/01/30 09:18:29;;;;;;;20.35;9.02;;;;;;;2.11;69.13;102348.84;5067595;28;20081;-76
2024/01/30 09:20:55;;;;;;;57.53;19.83;;;;;;;2.21;71.16;102347.25;5087817;28;20052;-76
2024/01/30 09:23:20;;;;;;;51.72;18.92;;;;;;;2.55;71.41;102373.81;5087312;28;20031;-76
2024/01/30 09:25:45;;;;;;;34.85;13.43;;;;;;;2.84;70.34;102376.13;5051906;28;20047;-76
2024/01/30 09:28:11;;;;;;;84.93;26.17;;;;;;;2.79;68.34;102377.31;5051573;28;20044;-77
2024/01/30 09:30:36;;;;;;;41.10;18.48;;;;;;;2.91;67.38;102380.03;5066867;28;20067;-76
2024/01/30 09:33:02;;;;;;;25.60;11.60;;;;;;;2.81;68.37;102342.94;5067118;28;20178;-76
2024/01/30 09:35:27;;;;;;;17.60;10.88;;;;;;;2.94;67.84;102369.25;5066521;28;20037;-77
2024/01/30 09:37:53;;;;;;;17.20;8.40;;;;;;;2.74;67.45;102323.28;5055023;28;20035;-76
2024/01/30 09:40:20;;;;;;;17.92;10.63;;;;;;;2.99;66.59;102336.31;5087415;28;20570;-76
2024/01/30 09:42:50;;;;;;;17.70;10.25;;;;;;;3.31;66.70;102362.09;5087270;28;20035;-76
2024/01/30 09:45:17;;;;;;;16.17;8.70;;;;;;;3.30;66.04;102333.19;5089827;28;20523;-77
2024/01/30 09:47:44;;;;;;;13.50;8.53;;;;;;;3.67;63.39;102356.78;5072224;28;20035;-77
2024/01/30 09:50:12;;;;;;;17.60;9.57;;;;;;;3.45;64.79;102352.31;5092083;28;20016;-77
2024/01/30 09:52:38;;;;;;;17.30;9.52;;;;;;;3.25;66.24;102330.91;5091454;28;20476;-75
2024/01/30 09:55:04;;;;;;;13.73;8.00;;;;;;;3.37;66.07;102340.53;5082962;28;20041;-77
2024/01/30 09:57:29;;;;;;;12.63;6.45;;;;;;;3.24;64.86;102312.56;5071308;28;20036;-77
2024/01/30 09:59:55;;;;;;;11.88;6.10;;;;;;;3.19;63.34;102326.94;5072462;28;20093;-76
2024/01/30 10:02:21;;;;;;;14.05;8.20;;;;;;;2.94;64.71;102306.84;5091915;28;20457;-75
2024/01/30 10:04:51;;;;;;;12.95;6.35;;;;;;;2.91;65.51;102296.50;5086979;28;20036;-77
2024/01/30 10:07:17;;;;;;;12.23;7.07;;;;;;;2.97;66.35;102311.88;5079383;28;20063;-75
2024/01/30 10:09:43;;;;;;;14.18;7.05;;;;;;;3.30;65.25;102320.00;5082068;28;20036;-74
2024/01/30 10:12:12;;;;;;;15.82;6.80;;;;;;;3.20;64.91;102312.78;5063718;28;20027;-75
2024/01/30 10:14:41;;;;;;;13.05;7.15;;;;;;;3.25;66.09;102312.47;5078482;28;20020;-78
2024/01/30 10:17:11;;;;;;;15.18;7.57;;;;;;;3.37;65.85;102313.31;5079169;28;20436;-76
2024/01/30 10:19:38;;;;;;;13.93;6.85;;;;;;;3.45;64.05;102321.47;5085311;28;20028;-75
2024/01/30 10:22:04;;;;;;;14.35;8.90;;;;;;;3.49;64.52;102307.09;5069986;28;20111;-78
2024/01/30 10:24:29;;;;;;;13.77;7.50;;;;;;;3.34;64.48;102266.09;5069806;28;20077;-75
2024/01/30 10:26:55;;;;;;;13.65;7.15;;;;;;;3.53;63.83;102300.63;5069777;28;20032;-78
2024/01/30 10:29:21;;;;;;;13.05;6.88;;;;;;;3.73;63.22;102287.72;5062845;28;20035;-77
2024/01/30 10:32:04;;;;;;;15.80;7.90;;;;;;;3.83;62.86;102299.22;5063604;28;20029;-75
2024/01/30 10:34:29;;;;;;;15.57;7.88;;;;;;;3.71;65.09;102263.25;5079856;28;20012;-76
2024/01/30 10:37:15;;;;;;;13.10;6.57;;;;;;;3.92;62.09;102285.28;5070783;28;20382;-76
2024/01/30 10:39:42;;;;;;;11.95;5.97;;;;;;;3.69;62.42;102286.25;5072891;28;20055;-75
2024/01/30 10:42:13;;;;;;;12.25;6.72;;;;;;;3.76;62.64;102287.44;5069884;28;20600;-77
2024/01/30 10:44:56;;;;;;;12.30;6.53;;;;;;;4.10;61.95;102284.81;5078532;28;20044;-76
2024/01/30 10:47:27;;;;;;;21.58;11.20;;;;;;;4.09;62.76;102286.63;5077371;28;20492;-77
2024/01/30 10:49:54;;;;;;;27.73;15.10;;;;;;;4.32;63.22;102295.34;5060014;28;20020;-76
2024/01/30 10:52:20;;;;;;;13.88;6.57;;;;;;;4.24;60.70;102271.34;5082732;28;20024;-75
2024/01/30 10:54:47;;;;;;;20.65;11.30;;;;;;;4.43;60.73;102282.13;5082848;28;20028;-76
2024/01/30 10:57:15;;;;;;;70.53;31.17;;;;;;;4.65;60.54;102274.25;5071242;28;20404;-75
2024/01/30 10:59:42;;;;;;;20.10;11.15;;;;;;;4.79;57.23;102293.28;5087285;28;20106;-75
2024/01/30 11:02:08;;;;;;;17.00;9.52;;;;;;;4.65;59.70;102275.06;5086112;28;20044;-75
2024/01/30 11:04:57;;;;;;;16.25;8.77;;;;;;;4.80;56.52;102280.91;5061706;28;20034;-76
2024/01/30 11:07:27;;;;;;;30.38;15.52;;;;;;;4.91;58.40;102275.56;5068986;28;20055;-75
2024/01/30 11:10:02;;;;;;;18.17;10.02;;;;;;;4.91;56.63;102253.59;5080700;28;20024;-76
2024/01/30 11:12:29;;;;;;;25.75;12.68;;;;;;;4.97;57.47;102284.81;5087206;28;20052;-75
2024/01/30 11:15:05;;;;;;;15.00;8.45;;;;;;;5.08;57.64;102276.81;5081526;28;20020;-76
2024/01/30 11:18:00;;;;;;;12.68;7.07;;;;;;;5.13;57.99;102269.34;5078842;28;20047;-75